Time;durP1;ratioP1;P1;durP2;ratioP2;P2;SDS_P1;SDS_P2;PMS_P1;PMS_P2;Temp;Humidity;BMP_temperature;BMP_pressure;BME280_temperature;BME280_humidity;BME280_pressure;Samples;Min_cycle;Max_cycle;Signal;HPM_P1;HPM_P2
2022/12/08 00:01:31;;;;;;;21.80;14.23;;;;;;;3.43;100.00;100957.72;5051125;28;20094;-69
2022/12/08 00:03:57;;;;;;;24.25;14.65;;;;;;;3.42;100.00;100951.56;5052905;28;20039;-69
2022/12/08 00:09:29;;;;;;;20.88;14.45;;;;;;;3.44;100.00;100938.00;5052863;28;20403;-69
2022/12/08 00:11:56;;;;;;;20.13;14.65;;;;;;;3.42;100.00;100940.03;5053864;28;20037;-69
2022/12/08 00:14:27;;;;;;;22.02;15.90;;;;;;;3.40;100.00;100931.31;5064827;28;20491;-69
2022/12/08 00:16:53;;;;;;;21.63;16.00;;;;;;;3.43;100.00;100930.97;5056745;28;20091;-69
2022/12/08 00:19:18;;;;;;;21.52;15.73;;;;;;;3.43;100.00;100920.28;5052777;28;20503;-69
2022/12/08 00:21:44;;;;;;;23.42;17.13;;;;;;;3.43;100.00;100920.28;5066426;28;20522;-69
2022/12/08 00:24:09;;;;;;;22.85;17.42;;;;;;;3.40;100.00;100916.13;5072753;28;20380;-69
2022/12/08 00:26:36;;;;;;;23.95;18.75;;;;;;;3.40;100.00;100915.28;5060025;28;20083;-69
2022/12/08 00:29:01;;;;;;;29.58;19.23;;;;;;;3.40;100.00;100909.94;5067719;28;20033;-69
2022/12/08 00:31:27;;;;;;;27.25;19.48;;;;;;;3.34;100.00;100906.13;5075325;28;20521;-68
2022/12/08 00:33:52;;;;;;;26.00;18.45;;;;;;;3.33;100.00;100912.47;5056218;28;20033;-69
2022/12/08 00:36:17;;;;;;;27.23;19.23;;;;;;;3.36;100.00;100907.59;5052704;28;20037;-69
2022/12/08 00:38:43;;;;;;;24.50;19.00;;;;;;;3.35;100.00;100908.63;5051762;28;20045;-69
2022/12/08 00:41:15;;;;;;;28.17;19.92;;;;;;;3.31;100.00;100901.13;5067518;28;20060;-68
2022/12/08 00:43:40;;;;;;;24.08;19.13;;;;;;;3.32;100.00;100903.63;5071077;28;20048;-69
2022/12/08 00:46:05;;;;;;;25.83;20.10;;;;;;;3.32;100.00;100894.75;5065512;28;20037;-69
2022/12/08 00:48:31;;;;;;;30.20;21.70;;;;;;;3.36;100.00;100904.94;5051116;28;20035;-69
2022/12/08 00:50:56;;;;;;;28.73;20.40;;;;;;;3.36;100.00;100904.94;5057152;28;20392;-69
2022/12/08 00:53:22;;;;;;;28.85;20.65;;;;;;;3.35;100.00;100897.94;5072342;28;20059;-68
2022/12/08 00:55:47;;;;;;;27.33;20.85;;;;;;;3.33;100.00;100891.09;5067258;28;20406;-69
2022/12/08 00:58:12;;;;;;;29.75;22.48;;;;;;;3.34;100.00;100893.59;5057014;28;20417;-68
2022/12/08 01:00:42;;;;;;;30.30;21.95;;;;;;;3.36;100.00;100888.88;5055487;28;20035;-69
2022/12/08 01:03:11;;;;;;;27.40;21.77;;;;;;;3.35;100.00;100889.06;5051516;28;20056;-69
2022/12/08 01:05:36;;;;;;;26.98;21.45;;;;;;;3.33;100.00;100880.38;5056690;28;20078;-69
2022/12/08 01:08:04;;;;;;;29.27;21.40;;;;;;;3.32;100.00;100881.38;5052106;28;20024;-69
2022/12/08 01:10:29;;;;;;;27.80;20.80;;;;;;;3.36;100.00;100883.53;5053448;28;20055;-69
2022/12/08 01:12:55;;;;;;;24.33;19.00;;;;;;;3.36;100.00;100874.69;5071189;28;20468;-69
2022/12/08 01:15:20;;;;;;;26.65;19.40;;;;;;;3.35;100.00;100881.88;5071765;28;20088;-69
2022/12/08 01:17:45;;;;;;;23.10;19.27;;;;;;;3.35;100.00;100876.53;5052143;28;20033;-69
2022/12/08 01:20:11;;;;;;;25.20;17.15;;;;;;;3.40;100.00;100870.66;5054736;28;20071;-69
2022/12/08 01:22:36;;;;;;;22.25;16.88;;;;;;;3.35;100.00;100871.19;5071282;28;20040;-70
2022/12/08 01:25:02;;;;;;;21.33;16.25;;;;;;;3.35;100.00;100865.84;5071604;28;20028;-69
2022/12/08 01:27:27;;;;;;;21.50;15.55;;;;;;;3.33;100.00;100864.34;5052009;28;20464;-70
2022/12/08 01:29:52;;;;;;;21.50;15.27;;;;;;;3.33;100.00;100867.00;5060713;28;20485;-70
2022/12/08 01:32:18;;;;;;;21.33;14.90;;;;;;;3.32;100.00;100874.22;5072993;28;20476;-70
2022/12/08 01:34:43;;;;;;;20.05;14.23;;;;;;;3.35;100.00;100867.66;5061071;28;20029;-69
2022/12/08 01:37:08;;;;;;;17.80;14.13;;;;;;;3.35;100.00;100860.50;5054217;28;20056;-70
2022/12/08 01:39:34;;;;;;;17.48;13.50;;;;;;;3.38;100.00;100869.97;5055767;28;20044;-70
2022/12/08 01:41:59;;;;;;;16.70;12.63;;;;;;;3.40;100.00;100867.13;5070524;28;20585;-69
2022/12/08 01:44:24;;;;;;;15.93;12.85;;;;;;;3.35;100.00;100870.34;5075662;28;20443;-69
2022/12/08 01:46:51;;;;;;;16.30;12.68;;;;;;;3.37;100.00;100871.00;5058709;28;20037;-69
2022/12/08 01:49:19;;;;;;;16.63;12.70;;;;;;;3.40;100.00;100864.44;5065096;28;20486;-69
2022/12/08 01:51:55;;;;;;;18.70;12.85;;;;;;;3.42;100.00;100859.78;5074533;28;20060;-69
2022/12/08 01:54:23;;;;;;;16.27;12.45;;;;;;;3.43;100.00;100861.41;5075095;28;20033;-70
2022/12/08 01:56:57;;;;;;;16.23;12.38;;;;;;;3.41;100.00;100858.09;5063900;28;20033;-70
2022/12/08 01:59:23;;;;;;;18.00;12.35;;;;;;;3.39;100.00;100855.59;5055076;28;20491;-69
2022/12/08 02:01:50;;;;;;;15.57;11.95;;;;;;;3.40;100.00;100859.09;5051576;28;20036;-70
2022/12/08 02:04:15;;;;;;;16.55;12.35;;;;;;;3.37;100.00;100847.75;5069179;28;20353;-69
2022/12/08 02:06:43;;;;;;;17.90;13.25;;;;;;;3.39;100.00;100855.59;5072160;28;20039;-70
2022/12/08 02:09:09;;;;;;;17.38;12.43;;;;;;;3.42;100.00;100857.09;5055059;28;20029;-69
2022/12/08 02:11:34;;;;;;;16.55;12.82;;;;;;;3.43;100.00;100840.00;5056450;28;20373;-70
2022/12/08 02:14:03;;;;;;;17.63;12.82;;;;;;;3.44;100.00;100844.38;5057323;28;20024;-70
2022/12/08 02:16:53;;;;;;;15.50;12.15;;;;;;;3.45;100.00;100843.38;5062878;28;20404;-69
2022/12/08 02:19:53;;;;;;;16.17;11.95;;;;;;;3.44;100.00;100839.00;5060033;28;20039;-70
2022/12/08 02:22:50;;;;;;;19.38;12.40;;;;;;;3.39;100.00;100844.09;5074095;28;20379;-70
2022/12/08 02:25:31;;;;;;;15.98;12.00;;;;;;;3.38;100.00;100829.84;5054477;28;20041;-69
2022/12/08 02:28:20;;;;;;;15.48;11.50;;;;;;;3.39;100.00;100828.84;5057051;28;20536;-69
2022/12/08 02:31:09;;;;;;;16.08;10.75;;;;;;;3.39;100.00;100833.38;5071740;28;20541;-69
2022/12/08 02:33:52;;;;;;;13.85;10.23;;;;;;;3.39;100.00;100828.03;5065693;28;20028;-70
2022/12/08 02:36:30;;;;;;;14.43;10.27;;;;;;;3.36;100.00;100822.00;5057478;28;20029;-69
2022/12/08 02:39:04;;;;;;;16.75;9.90;;;;;;;3.35;100.00;100811.50;5059253;28;20032;-69
2022/12/08 02:42:07;;;;;;;11.77;8.95;;;;;;;3.36;100.00;100813.97;5058401;28;20107;-70
2022/12/08 02:44:40;;;;;;;11.82;8.60;;;;;;;3.36;100.00;100807.81;5074614;28;20504;-70
2022/12/08 02:47:15;;;;;;;11.57;9.07;;;;;;;3.33;100.00;100800.97;5072054;28;20115;-70
2022/12/08 02:49:41;;;;;;;11.95;8.25;;;;;;;3.35;100.00;100804.31;5059679;28;20032;-70
2022/12/08 02:52:12;;;;;;;11.35;8.25;;;;;;;3.36;100.00;100805.97;5061145;28;20487;-69
2022/12/08 02:54:46;;;;;;;11.80;8.05;;;;;;;3.39;100.00;100802.09;5054384;28;20392;-69
2022/12/08 02:57:17;;;;;;;11.27;7.95;;;;;;;3.39;100.00;100786.06;5071901;28;20028;-69
2022/12/08 03:00:01;;;;;;;11.55;9.25;;;;;;;3.37;100.00;100775.53;5071760;28;20040;-69
2022/12/08 03:02:38;;;;;;;12.65;8.23;;;;;;;3.36;100.00;100784.56;5051511;28;20108;-69
2022/12/08 03:05:23;;;;;;;10.93;9.02;;;;;;;3.35;100.00;100772.22;5054104;28;20041;-70
2022/12/08 03:08:00;;;;;;;11.85;8.95;;;;;;;3.40;100.00;100778.84;5055598;28;20044;-69
2022/12/08 03:10:36;;;;;;;14.43;8.82;;;;;;;3.37;100.00;100774.72;5057728;28;20028;-69
2022/12/08 03:13:16;;;;;;;10.38;8.63;;;;;;;3.32;100.00;100780.59;5052446;28;20119;-70
2022/12/08 03:15:46;;;;;;;12.43;8.65;;;;;;;3.30;100.00;100782.59;5060525;28;20056;-70
2022/12/08 03:18:15;;;;;;;12.32;9.63;;;;;;;3.30;100.00;100766.56;5073908;28;20036;-70
2022/12/08 03:20:42;;;;;;;14.75;10.13;;;;;;;3.30;100.00;100769.22;5072550;28;20040;-69
2022/12/08 03:23:12;;;;;;;14.82;10.05;;;;;;;3.28;100.00;100767.75;5053520;28;20484;-69
2022/12/08 03:25:42;;;;;;;15.25;10.90;;;;;;;3.32;100.00;100763.69;5053296;28;20111;-70
2022/12/08 03:28:07;;;;;;;15.27;11.07;;;;;;;3.28;100.00;100759.75;5053582;28;20408;-69
2022/12/08 03:30:37;;;;;;;15.27;10.82;;;;;;;3.31;100.00;100752.19;5059045;28;20024;-69
2022/12/08 03:33:08;;;;;;;17.02;12.20;;;;;;;3.31;100.00;100754.03;5052888;28;20025;-69
2022/12/08 03:35:38;;;;;;;20.58;14.73;;;;;;;3.29;100.00;100754.22;5060584;28;20016;-70
2022/12/08 03:38:09;;;;;;;20.55;14.48;;;;;;;3.31;100.00;100752.19;5073369;28;20031;-69
2022/12/08 03:40:35;;;;;;;;;;;;;;;3.40;100.00;100749.44;5063728;28;20039;-68
2022/12/08 03:43:00;;;;;;;23.40;16.77;;;;;;;3.34;100.00;100741.13;5071277;28;19916;-69
2022/12/08 03:45:26;;;;;;;24.35;17.90;;;;;;;3.37;100.00;100746.09;5072870;28;20150;-69
2022/12/08 03:47:51;;;;;;;24.25;18.60;;;;;;;3.39;100.00;100742.44;5066201;28;20365;-70
2022/12/08 03:50:17;;;;;;;28.63;21.85;;;;;;;3.41;100.00;100743.06;5072053;28;20056;-70
2022/12/08 03:52:42;;;;;;;32.97;23.52;;;;;;;3.42;100.00;100742.88;5055790;28;20472;-69
2022/12/08 03:55:08;;;;;;;31.77;24.65;;;;;;;3.42;100.00;100731.38;5055123;28;20213;-70
2022/12/08 03:57:33;;;;;;;31.10;24.77;;;;;;;3.37;100.00;100735.41;5073201;28;20064;-70
2022/12/08 03:59:58;;;;;;;35.75;25.63;;;;;;;3.38;100.00;100733.56;5072797;28;20418;-69
2022/12/08 04:02:24;;;;;;;34.95;26.20;;;;;;;3.38;100.00;100733.56;5056695;28;20430;-69
2022/12/08 04:04:49;;;;;;;38.90;26.52;;;;;;;3.39;100.00;100732.56;5052744;28;20085;-69
2022/12/08 04:07:14;;;;;;;38.97;28.00;;;;;;;3.36;100.00;100728.38;5066802;28;20032;-69
2022/12/08 04:09:40;;;;;;;37.17;27.80;;;;;;;3.37;100.00;100729.25;5074076;28;20036;-70
2022/12/08 04:12:06;;;;;;;38.72;28.67;;;;;;;3.39;100.00;100726.38;5080540;28;20041;-70
2022/12/08 04:14:32;;;;;;;41.50;27.83;;;;;;;3.39;100.00;100710.34;5077821;28;20068;-70
2022/12/08 04:16:57;;;;;;;37.55;28.23;;;;;;;3.41;100.00;100719.00;5075235;28;20475;-70
2022/12/08 04:19:22;;;;;;;38.70;27.73;;;;;;;3.37;100.00;100719.34;5072546;28;20029;-70
2022/12/08 04:21:47;;;;;;;34.72;25.63;;;;;;;3.40;100.00;100728.03;5063458;28;20078;-71
2022/12/08 04:24:13;;;;;;;33.25;25.27;;;;;;;3.40;100.00;100725.34;5052461;28;20116;-70
2022/12/08 04:26:38;;;;;;;33.00;24.08;;;;;;;3.43;100.00;100722.31;5065541;28;20032;-70
2022/12/08 04:29:03;;;;;;;30.25;23.35;;;;;;;3.38;100.00;100720.19;5072162;28;20361;-70
2022/12/08 04:31:29;;;;;;;30.73;21.35;;;;;;;3.41;100.00;100713.66;5066741;28;20025;-69
2022/12/08 04:33:57;;;;;;;29.17;21.20;;;;;;;3.39;100.00;100710.34;5052619;28;20033;-69
2022/12/08 04:36:22;;;;;;;26.70;20.65;;;;;;;3.41;100.00;100709.13;5061525;28;20107;-69
2022/12/08 04:38:47;;;;;;;25.08;19.17;;;;;;;3.41;100.00;100708.28;5066604;28;20124;-69
2022/12/08 04:41:13;;;;;;;24.75;18.20;;;;;;;3.39;100.00;100710.34;5063107;28;20437;-69
2022/12/08 04:43:38;;;;;;;21.98;16.58;;;;;;;3.40;100.00;100704.81;5071468;28;20541;-70
2022/12/08 04:46:07;;;;;;;21.38;15.95;;;;;;;3.42;100.00;100700.09;5071685;28;20107;-69
2022/12/08 04:48:35;;;;;;;20.15;14.93;;;;;;;3.43;100.00;100688.38;5072469;28;20545;-70
2022/12/08 04:51:00;;;;;;;21.05;14.77;;;;;;;3.41;100.00;100684.22;5070883;28;20663;-70
2022/12/08 04:53:26;;;;;;;17.65;11.73;;;;;;;3.43;100.00;100687.53;5051519;28;20116;-69
2022/12/08 04:55:51;;;;;;;18.33;11.73;;;;;;;3.42;100.00;100693.91;5060295;28;20039;-69
2022/12/08 04:58:18;;;;;;;15.90;12.00;;;;;;;3.37;100.00;100687.25;5070957;28;20029;-70
2022/12/08 05:00:45;;;;;;;11.50;8.30;;;;;;;3.41;100.00;100676.19;5061231;28;20032;-69
2022/12/08 05:03:11;;;;;;;10.30;7.45;;;;;;;3.39;100.00;100683.59;5051358;28;20415;-70
2022/12/08 05:05:36;;;;;;;7.70;5.57;;;;;;;3.32;100.00;100684.31;5060977;28;20061;-69
2022/12/08 05:08:02;;;;;;;9.93;5.80;;;;;;;3.31;100.00;100682.66;5076024;28;20113;-69
2022/12/08 05:10:27;;;;;;;9.07;5.43;;;;;;;3.29;100.00;100692.69;5070187;28;20036;-69
2022/12/08 05:12:53;;;;;;;8.48;5.10;;;;;;;3.30;100.00;100704.22;5068334;28;20082;-69
2022/12/08 05:15:18;;;;;;;5.47;4.68;;;;;;;3.29;100.00;100700.72;5074799;28;20043;-70
2022/12/08 05:17:43;;;;;;;7.95;4.60;;;;;;;3.29;100.00;100703.41;5076120;28;20067;-69
2022/12/08 05:20:10;;;;;;;6.75;3.90;;;;;;;3.32;100.00;100696.84;5072399;28;20079;-69
2022/12/08 05:22:35;;;;;;;7.35;4.30;;;;;;;3.32;100.00;100695.00;5074333;28;20379;-70
2022/12/08 05:25:00;;;;;;;7.28;4.57;;;;;;;3.35;100.00;100691.97;5073852;28;20032;-69
2022/12/08 05:27:26;;;;;;;7.32;4.38;;;;;;;3.36;100.00;100695.47;5056055;28;20115;-68
2022/12/08 05:29:51;;;;;;;8.70;4.47;;;;;;;3.37;100.00;100692.63;5059933;28;20438;-69
2022/12/08 05:32:16;;;;;;;6.47;4.75;;;;;;;3.40;100.00;100690.56;5063755;28;20456;-69
2022/12/08 05:34:42;;;;;;;8.32;5.45;;;;;;;3.41;100.00;100681.53;5075401;28;20035;-69
2022/12/08 05:37:07;;;;;;;11.55;5.10;;;;;;;3.38;100.00;100685.41;5072481;28;20025;-70
2022/12/08 05:39:32;;;;;;;6.50;4.90;;;;;;;3.35;100.00;100681.28;5074385;28;20021;-69
2022/12/08 05:41:58;;;;;;;7.40;4.60;;;;;;;3.30;100.00;100683.66;5075057;28;20064;-74
2022/12/08 05:44:24;;;;;;;7.22;4.35;;;;;;;3.29;100.00;100684.69;5074167;28;20511;-68
2022/12/08 05:46:49;;;;;;;4.45;3.92;;;;;;;3.29;100.00;100681.16;5075295;28;20036;-68
2022/12/08 05:49:15;;;;;;;6.40;2.67;;;;;;;3.26;100.00;100693.06;5074930;28;20028;-69
2022/12/08 05:51:40;;;;;;;7.25;2.70;;;;;;;3.19;100.00;100694.78;5072505;28;20040;-68
2022/12/08 05:54:05;;;;;;;3.55;2.17;;;;;;;3.14;100.00;100686.47;5073550;28;20609;-75
2022/12/08 05:56:31;;;;;;;8.52;2.83;;;;;;;3.13;100.00;100687.50;5074003;28;20036;-69
2022/12/08 05:58:56;;;;;;;6.13;2.63;;;;;;;3.12;100.00;100678.63;5070787;28;20115;-68
2022/12/08 06:01:27;;;;;;;5.55;3.22;;;;;;;3.16;100.00;100676.44;5059235;28;20029;-69
2022/12/08 06:03:53;;;;;;;3.83;2.80;;;;;;;3.21;100.00;100683.91;5055113;28;20036;-69
2022/12/08 06:06:19;;;;;;;3.97;2.50;;;;;;;3.22;100.00;100673.03;5065232;28;20025;-70
2022/12/08 06:08:45;;;;;;;5.72;3.03;;;;;;;3.24;100.00;100671.00;5073814;28;20039;-69
2022/12/08 06:11:20;;;;;;;5.07;2.38;;;;;;;3.25;100.00;100672.66;5063341;28;20029;-69
2022/12/08 06:13:47;;;;;;;6.07;2.50;;;;;;;3.21;100.00;100668.69;5055087;28;20033;-69
2022/12/08 06:16:12;;;;;;;3.75;2.30;;;;;;;3.23;100.00;100665.84;5069757;28;20033;-69
2022/12/08 06:18:37;;;;;;;6.07;2.47;;;;;;;3.24;100.00;100660.31;5059718;28;20530;-69
2022/12/08 06:21:07;;;;;;;4.03;2.53;;;;;;;3.27;100.00;100665.28;5062867;28;20540;-70
2022/12/08 06:23:33;;;;;;;4.80;2.63;;;;;;;3.35;100.00;100667.06;5054633;28;20029;-70
2022/12/08 06:26:03;;;;;;;6.72;2.75;;;;;;;3.37;100.00;100671.22;5061305;28;20085;-69
2022/12/08 06:28:30;;;;;;;4.15;2.63;;;;;;;3.37;100.00;100665.88;5073218;28;20174;-70
2022/12/08 06:30:56;;;;;;;6.25;3.45;;;;;;;3.42;100.00;100672.53;5073794;28;20118;-68
2022/12/08 06:33:22;;;;;;;9.13;3.20;;;;;;;3.41;100.00;100665.50;5074592;28;20486;-69
2022/12/08 06:35:47;;;;;;;4.47;2.85;;;;;;;3.42;100.00;100668.00;5071482;28;20044;-70
2022/12/08 06:38:12;;;;;;;3.83;2.70;;;;;;;3.46;100.00;100665.81;5070958;28;20150;-70
2022/12/08 06:40:37;;;;;;;5.25;2.10;;;;;;;3.45;100.00;100677.50;5073482;28;20036;-69
2022/12/08 06:43:03;;;;;;;2.35;1.77;;;;;;;3.45;100.00;100666.81;5073421;28;20044;-68
2022/12/08 06:45:28;;;;;;;3.70;2.00;;;;;;;3.41;100.00;100670.84;5054914;28;20123;-69
2022/12/08 06:47:53;;;;;;;5.00;2.40;;;;;;;3.44;100.00;100670.47;5067297;28;20476;-70
2022/12/08 06:50:19;;;;;;;4.40;2.45;;;;;;;3.40;100.00;100666.50;5073375;28;20032;-70
2022/12/08 06:52:45;;;;;;;5.53;2.42;;;;;;;3.40;100.00;100669.19;5073995;28;20110;-69
2022/12/08 06:55:10;;;;;;;5.65;2.97;;;;;;;3.41;100.00;100670.84;5073242;28;20035;-68
2022/12/08 06:57:35;;;;;;;4.07;2.65;;;;;;;3.41;100.00;100665.50;5067414;28;20028;-70
2022/12/08 07:00:01;;;;;;;3.35;2.60;;;;;;;3.41;100.00;100658.28;5054173;28;20053;-70
2022/12/08 07:02:26;;;;;;;7.05;2.83;;;;;;;3.41;100.00;100652.94;5066021;28;20035;-69
2022/12/08 07:04:52;;;;;;;8.57;3.15;;;;;;;3.44;100.00;100655.28;5054069;28;20083;-70
2022/12/08 07:07:17;;;;;;;3.70;2.92;;;;;;;3.48;100.00;100661.09;5082385;28;20074;-68
2022/12/08 07:09:42;;;;;;;8.30;3.53;;;;;;;3.49;100.00;100662.75;5073944;28;20048;-69
2022/12/08 07:12:08;;;;;;;6.40;3.60;;;;;;;3.48;100.00;100663.75;5057527;28;20033;-68
2022/12/08 07:14:33;;;;;;;7.00;3.80;;;;;;;3.49;100.00;100666.25;5053394;28;20443;-68
2022/12/08 07:16:58;;;;;;;6.55;4.25;;;;;;;3.51;100.00;100660.72;5058856;28;20524;-69
2022/12/08 07:19:24;;;;;;;10.13;4.78;;;;;;;3.52;100.00;100668.56;5071414;28;20119;-70
2022/12/08 07:21:49;;;;;;;9.93;6.57;;;;;;;3.48;100.00;100664.59;5053416;28;20029;-69
2022/12/08 07:24:14;;;;;;;13.65;10.20;;;;;;;3.45;100.00;100667.63;5053351;28;20028;-69
2022/12/08 07:26:40;;;;;;;15.35;10.00;;;;;;;3.47;100.00;100662.09;5052984;28;20496;-69
2022/12/08 07:29:05;;;;;;;24.67;16.25;;;;;;;3.45;100.00;100662.28;5072050;28;20476;-69
2022/12/08 07:31:31;;;;;;;19.88;14.75;;;;;;;3.45;100.00;100675.66;5072504;28;20036;-70
2022/12/08 07:33:56;;;;;;;20.13;15.77;;;;;;;3.46;100.00;100668.47;5064826;28;20041;-69
2022/12/08 07:36:23;;;;;;;24.83;17.23;;;;;;;3.46;100.00;100676.50;5054496;28;20079;-69
2022/12/08 07:38:49;;;;;;;22.73;18.42;;;;;;;3.46;100.00;100669.28;5066492;28;20048;-69
2022/12/08 07:41:17;;;;;;;27.98;21.17;;;;;;;3.46;100.00;100671.16;5061901;28;20033;-71
2022/12/08 07:43:42;;;;;;;24.55;20.25;;;;;;;3.46;100.00;100665.81;5053348;28;20077;-72
2022/12/08 07:46:14;;;;;;;27.38;21.00;;;;;;;3.46;100.00;100658.59;5052824;28;20052;-73
2022/12/08 07:48:40;;;;;;;29.05;21.80;;;;;;;3.47;100.00;100659.41;5053332;28;20064;-70
2022/12/08 07:51:06;;;;;;;27.50;22.83;;;;;;;3.46;100.00;100657.78;5059244;28;20516;-71
2022/12/08 07:53:31;;;;;;;28.90;21.92;;;;;;;3.46;100.00;100657.78;5072747;28;20071;-71
2022/12/08 07:55:56;;;;;;;31.63;22.42;;;;;;;3.43;100.00;100675.00;5065366;28;20036;-70
2022/12/08 07:58:23;;;;;;;33.25;22.90;;;;;;;3.44;100.00;100673.16;5050647;28;20107;-72
2022/12/08 08:00:48;;;;;;;31.40;24.38;;;;;;;3.42;100.00;100677.88;5059037;28;20657;-72
2022/12/08 08:03:13;;;;;;;28.65;22.95;;;;;;;3.39;100.00;100672.88;5056194;28;20105;-72
2022/12/08 08:05:39;;;;;;;29.85;23.33;;;;;;;3.35;100.00;100678.59;5055534;28;20467;-72
2022/12/08 08:08:04;;;;;;;22.67;17.55;;;;;;;3.32;100.00;100672.75;5059052;28;20039;-72
2022/12/08 08:10:29;;;;;;;25.25;17.83;;;;;;;3.29;100.00;100676.66;5054830;28;20082;-72
2022/12/08 08:12:58;;;;;;;21.73;16.15;;;;;;;3.28;100.00;100674.16;5050516;28;20041;-72
2022/12/08 08:15:24;;;;;;;20.08;15.85;;;;;;;3.27;100.00;100673.31;5060128;28;20060;-71
2022/12/08 08:17:50;;;;;;;17.70;12.00;;;;;;;3.27;100.00;100675.97;5053864;28;20082;-72
2022/12/08 08:20:17;;;;;;;13.32;11.38;;;;;;;3.25;100.00;100675.34;5071712;28;20043;-71
2022/12/08 08:22:44;;;;;;;16.10;11.60;;;;;;;3.23;100.00;100674.72;5061941;28;20025;-76
2022/12/08 08:25:10;;;;;;;14.15;11.15;;;;;;;3.20;100.00;100667.03;5051130;28;20037;-74
2022/12/08 08:27:35;;;;;;;14.05;10.45;;;;;;;3.21;100.00;100679.38;5058982;28;20484;-72
2022/12/08 08:30:00;;;;;;;12.70;10.00;;;;;;;3.22;100.00;100673.03;5063930;28;20029;-75
2022/12/08 08:32:25;;;;;;;12.30;8.27;;;;;;;3.27;100.00;100664.47;5063996;28;20040;-73
2022/12/08 08:34:51;;;;;;;16.23;8.57;;;;;;;3.27;100.00;100678.66;5068829;28;20534;-71
2022/12/08 08:37:16;;;;;;;14.45;8.93;;;;;;;3.32;100.00;100673.63;5091949;28;20514;-72
2022/12/08 08:39:41;;;;;;;10.20;7.38;;;;;;;3.30;100.00;100670.28;5061655;28;20107;-74
2022/12/08 08:42:07;;;;;;;11.00;7.20;;;;;;;3.24;100.00;100676.34;5072748;28;20076;-72
2022/12/08 08:44:32;;;;;;;15.02;8.00;;;;;;;3.22;100.00;100667.69;5070199;28;20070;-74
2022/12/08 08:46:58;;;;;;;9.35;6.40;;;;;;;3.22;100.00;100673.03;5072482;28;20024;-72
2022/12/08 21:37:07;;;;;;;27.67;16.60;;;;;;;1.84;100.00;100485.13;5109633;27;20361;-70
2022/12/08 21:39:32;;;;;;;31.38;19.48;;;;;;;1.83;100.00;100485.25;5108709;28;20023;-69
2022/12/08 21:44:41;;;;;;;26.15;19.38;;;;;;;1.79;100.00;100489.31;5110239;28;20047;-69
2022/12/08 21:47:06;;;;;;;27.25;20.65;;;;;;;1.77;100.00;100492.97;5109669;28;20028;-68
2022/12/08 21:49:32;;;;;;;26.88;20.85;;;;;;;1.76;100.00;100490.50;5109921;28;20019;-68
2022/12/08 21:51:57;;;;;;;29.20;19.60;;;;;;;1.79;100.00;100492.81;5107965;28;20019;-69
2022/12/08 21:54:23;;;;;;;27.85;21.90;;;;;;;1.80;100.00;100491.81;5086900;28;20066;-68
2022/12/08 21:56:49;;;;;;;26.83;20.52;;;;;;;1.80;100.00;100494.47;5086713;28;20024;-69
2022/12/08 21:59:15;;;;;;;28.05;20.27;;;;;;;1.80;100.00;100498.97;5088563;28;20067;-69
2022/12/08 22:01:43;;;;;;;24.40;19.63;;;;;;;1.80;100.00;100497.16;5086829;28;20111;-69
2022/12/08 22:04:11;;;;;;;26.92;20.17;;;;;;;1.78;100.00;100499.13;5087228;28;20032;-68
2022/12/08 22:06:37;;;;;;;28.40;20.63;;;;;;;1.80;100.00;100499.81;5088162;28;20016;-69
2022/12/08 22:09:02;;;;;;;25.20;19.90;;;;;;;1.79;100.00;100497.31;5089138;28;20028;-68
2022/12/08 22:11:27;;;;;;;25.10;20.33;;;;;;;1.82;100.00;100496.97;5085022;28;20086;-68
2022/12/08 22:13:53;;;;;;;26.85;19.88;;;;;;;1.78;100.00;100499.13;5087913;28;20032;-68
2022/12/08 22:16:18;;;;;;;26.25;21.15;;;;;;;1.76;100.00;100496.66;5087390;28;20074;-69
2022/12/08 22:18:44;;;;;;;27.35;20.45;;;;;;;1.74;100.00;100497.84;5089027;28;20085;-68
2022/12/08 22:21:15;;;;;;;28.33;20.23;;;;;;;1.74;100.00;100493.34;5086703;28;20107;-69
2022/12/08 22:23:40;;;;;;;27.42;20.83;;;;;;;1.71;100.00;100493.69;5088927;28;20028;-69
2022/12/08 22:26:09;;;;;;;30.52;21.70;;;;;;;1.72;100.00;100495.34;5088819;28;20031;-69
2022/12/08 22:28:37;;;;;;;26.98;20.13;;;;;;;1.66;100.00;100495.22;5088743;28;20441;-69
2022/12/08 22:31:20;;;;;;;29.38;22.40;;;;;;;1.65;100.00;100490.91;5085382;28;20028;-69
2022/12/08 22:33:48;;;;;;;27.73;21.38;;;;;;;1.61;100.00;100492.25;5086025;28;20041;-68
2022/12/08 22:36:18;;;;;;;36.60;25.85;;;;;;;1.62;100.00;100486.75;5088393;28;20063;-69
2022/12/08 22:38:44;;;;;;;29.00;22.90;;;;;;;1.62;100.00;100488.59;5088575;28;20027;-68
2022/12/08 22:41:10;;;;;;;25.15;20.70;;;;;;;1.61;100.00;100477.06;5085980;28;20111;-69
2022/12/08 22:43:36;;;;;;;26.52;20.50;;;;;;;1.56;100.00;100474.94;5088829;28;20036;-68
2022/12/08 22:46:06;;;;;;;24.42;20.50;;;;;;;1.51;100.00;100477.31;5088758;28;20352;-69
2022/12/08 22:48:31;;;;;;;25.92;20.73;;;;;;;1.50;100.00;100475.63;5073436;28;20059;-69
2022/12/08 22:51:01;;;;;;;25.50;20.52;;;;;;;1.52;100.00;100476.28;5072999;28;20056;-68
2022/12/08 22:53:27;;;;;;;28.35;20.27;;;;;;;1.52;100.00;100478.94;5074446;28;20032;-68
2022/12/08 22:55:52;;;;;;;26.83;20.42;;;;;;;1.53;100.00;100477.94;5074708;28;20030;-68
2022/12/08 22:58:18;;;;;;;28.02;20.23;;;;;;;1.57;100.00;100476.59;5073488;28;20058;-68
2022/12/08 23:00:44;;;;;;;27.38;21.20;;;;;;;1.58;100.00;100477.41;5070027;28;20024;-68
2022/12/08 23:03:09;;;;;;;25.63;20.63;;;;;;;1.59;100.00;100481.75;5072523;28;20498;-69
2022/12/08 23:05:37;;;;;;;32.83;25.00;;;;;;;1.64;100.00;100478.56;5074376;28;20099;-68
2022/12/08 23:08:03;;;;;;;40.15;27.20;;;;;;;1.62;100.00;100476.06;5074794;28;20024;-68
2022/12/08 23:10:29;;;;;;;31.88;24.33;;;;;;;1.62;100.00;100477.91;5072054;28;20081;-68
2022/12/08 23:12:54;;;;;;;28.33;22.42;;;;;;;1.68;100.00;100482.56;5074555;28;20040;-68
2022/12/08 23:15:20;;;;;;;29.75;23.45;;;;;;;1.74;100.00;100479.19;5072814;28;20024;-69
2022/12/08 23:17:45;;;;;;;29.92;22.88;;;;;;;1.76;100.00;100485.16;5074455;28;20020;-68
2022/12/08 23:20:11;;;;;;;32.30;24.20;;;;;;;1.76;100.00;100485.97;5072317;28;20020;-69
2022/12/08 23:22:36;;;;;;;26.85;21.67;;;;;;;1.79;100.00;100481.31;5073063;28;20478;-68
2022/12/08 23:25:02;;;;;;;26.95;21.27;;;;;;;1.79;100.00;100476.78;5073221;28;20028;-68
2022/12/08 23:27:31;;;;;;;29.92;22.70;;;;;;;1.79;100.00;100476.78;5072988;28;20107;-69
2022/12/08 23:29:57;;;;;;;28.77;21.00;;;;;;;1.80;100.00;100485.63;5072280;28;20027;-68
2022/12/08 23:32:22;;;;;;;28.50;21.60;;;;;;;1.75;100.00;100475.47;5072634;28;20379;-68
2022/12/08 23:34:47;;;;;;;25.77;21.25;;;;;;;1.79;100.00;100467.97;5072189;28;20411;-69
2022/12/08 23:37:13;;;;;;;30.75;22.77;;;;;;;1.79;100.00;100474.13;5072074;28;20169;-68
2022/12/08 23:39:38;;;;;;;28.35;22.20;;;;;;;1.83;100.00;100485.25;5072613;28;20036;-68
2022/12/08 23:42:04;;;;;;;29.92;23.27;;;;;;;1.85;100.00;100483.28;5072065;28;20021;-68
2022/12/08 23:44:29;;;;;;;29.80;21.83;;;;;;;1.85;100.00;100478.75;5072278;28;20020;-68
2022/12/08 23:46:55;;;;;;;33.50;22.30;;;;;;;1.88;100.00;100483.75;5071347;28;20035;-68
2022/12/08 23:49:22;;;;;;;27.35;21.70;;;;;;;1.91;100.00;100477.22;5072238;28;20016;-68
2022/12/08 23:51:47;;;;;;;28.40;22.17;;;;;;;1.88;100.00;100477.59;5073260;28;20028;-69
2022/12/08 23:54:12;;;;;;;26.33;21.88;;;;;;;1.90;100.00;100478.22;5074088;28;20066;-69
2022/12/08 23:56:38;;;;;;;29.45;21.50;;;;;;;1.91;100.00;100461.22;5073509;28;20399;-69
2022/12/08 23:59:03;;;;;;;30.55;20.73;;;;;;;1.90;100.00;100468.41;5071193;28;20024;-69
